Time;durP1;ratioP1;P1;durP2;ratioP2;P2;SDS_P1;SDS_P2;PMS_P1;PMS_P2;Temp;Humidity;BMP_temperature;BMP_pressure;BME280_temperature;BME280_humidity;BME280_pressure;Samples;Min_cycle;Max_cycle;Signal;HPM_P1;HPM_P2
2023/06/23 00:00:28;;;;;;;15.65;8.25;;;;;;;15.78;100.00;101723.81;4973364;28;20064;-74
2023/06/23 00:02:53;;;;;;;15.07;7.50;;;;;;;15.83;100.00;101727.75;4990955;28;20383;-74
2023/06/23 00:05:19;;;;;;;12.68;7.82;;;;;;;15.74;100.00;101717.19;4990711;28;20277;-74
2023/06/23 00:07:45;;;;;;;13.05;6.68;;;;;;;15.76;100.00;101733.94;4990669;28;20033;-74
2023/06/23 00:10:10;;;;;;;15.13;7.95;;;;;;;15.72;100.00;101727.34;4990553;28;20096;-74
2023/06/23 00:12:41;;;;;;;13.15;7.22;;;;;;;15.76;100.00;101733.13;4990441;28;20359;-75
2023/06/23 00:15:08;;;;;;;11.48;6.72;;;;;;;15.71;100.00;101736.44;4990511;28;20030;-74
2023/06/23 00:17:34;;;;;;;17.23;6.72;;;;;;;15.71;100.00;101746.38;4990340;28;20030;-74
2023/06/23 00:19:59;;;;;;;13.23;7.38;;;;;;;15.66;100.00;101746.16;4990390;28;20088;-74
2023/06/23 00:22:27;;;;;;;13.75;7.93;;;;;;;15.61;100.00;101756.69;4990403;28;20030;-74
2023/06/23 00:24:53;;;;;;;19.05;8.50;;;;;;;15.61;100.00;101754.81;4990400;28;20030;-74
2023/06/23 00:27:19;;;;;;;14.73;7.85;;;;;;;15.59;100.00;101756.06;4990213;28;20030;-74
2023/06/23 00:29:45;;;;;;;13.50;7.57;;;;;;;15.56;100.00;101754.63;4972828;28;20121;-74
2023/06/23 00:32:10;;;;;;;14.73;7.47;;;;;;;15.53;100.00;101755.03;4990254;28;20041;-74
2023/06/23 00:34:36;;;;;;;16.88;8.35;;;;;;;15.50;100.00;101769.72;4990159;28;20081;-75
2023/06/23 00:37:01;;;;;;;16.80;8.98;;;;;;;15.41;100.00;101760.22;4990185;28;20030;-74
2023/06/23 00:39:26;;;;;;;13.95;7.22;;;;;;;15.47;100.00;101767.47;4989964;28;20030;-75
2023/06/23 00:41:52;;;;;;;13.23;6.75;;;;;;;15.42;100.00;101767.25;4990059;28;20191;-74
2023/06/23 00:44:17;;;;;;;13.57;7.82;;;;;;;15.48;100.00;101768.28;4972555;28;20049;-75
2023/06/23 00:46:43;;;;;;;16.77;8.15;;;;;;;15.42;100.00;101767.25;4990056;28;20533;-75
2023/06/23 00:49:15;;;;;;;13.65;6.50;;;;;;;15.37;100.00;101774.28;4990054;28;20034;-75
2023/06/23 00:51:41;;;;;;;12.43;7.22;;;;;;;15.34;100.00;101779.03;4990160;28;20038;-75
2023/06/23 00:54:07;;;;;;;16.90;7.75;;;;;;;15.38;100.00;101786.69;4990049;28;20061;-75
2023/06/23 00:56:33;;;;;;;17.83;8.95;;;;;;;15.37;100.00;101791.22;4989785;28;20034;-75
2023/06/23 00:58:59;;;;;;;16.38;9.10;;;;;;;15.34;100.00;101797.84;4989916;28;20077;-75
2023/06/23 01:01:25;;;;;;;16.40;8.45;;;;;;;15.33;100.00;101809.63;4972562;28;20445;-75
2023/06/23 01:03:51;;;;;;;16.33;8.55;;;;;;;15.35;100.00;101806.72;4990035;28;20413;-74
2023/06/23 01:06:37;;;;;;;17.17;9.00;;;;;;;15.31;100.00;101803.63;4989863;28;20034;-74
2023/06/23 01:09:27;;;;;;;18.00;10.90;;;;;;;15.37;100.00;101815.41;4989868;28;20061;-73
2023/06/23 01:12:01;;;;;;;19.90;10.55;;;;;;;15.34;100.00;101808.59;4989874;28;20045;-74
2023/06/23 01:14:56;;;;;;;18.95;11.10;;;;;;;15.37;100.00;101814.59;4989486;28;20069;-74
2023/06/23 01:17:30;;;;;;;22.45;9.98;;;;;;;15.35;100.00;101828.22;4989547;28;20486;-74
2023/06/23 01:20:17;;;;;;;15.98;9.73;;;;;;;15.41;100.00;101832.81;4989671;28;20117;-74
2023/06/23 01:22:49;;;;;;;19.73;10.95;;;;;;;15.33;100.00;101820.38;4989770;28;20164;-75
2023/06/23 01:25:44;;;;;;;19.42;12.20;;;;;;;15.34;100.00;101821.22;4989804;28;20953;-74
2023/06/23 01:28:39;;;;;;;21.33;11.63;;;;;;;15.31;100.00;101817.06;4989692;28;20077;-74
2023/06/23 01:31:07;;;;;;;25.35;13.02;;;;;;;15.36;100.00;101818.34;4989626;28;20386;-74
2023/06/23 01:33:43;;;;;;;22.75;11.93;;;;;;;15.36;100.00;101813.78;4991440;28;20070;-74
2023/06/23 01:36:16;;;;;;;19.75;11.75;;;;;;;15.34;100.00;101813.16;4993388;28;20555;-74
2023/06/23 01:38:47;;;;;;;23.23;12.55;;;;;;;15.33;100.00;101824.94;4993427;28;20104;-74
2023/06/23 01:41:16;;;;;;;;;;;;;;;15.41;100.00;101832.00;4993734;28;20494;-74
2023/06/23 01:43:46;;;;;;;22.15;14.00;;;;;;;15.37;100.00;101836.09;4993328;28;20054;-74
2023/06/23 01:46:25;;;;;;;25.75;13.40;;;;;;;15.33;100.00;101843.75;4993080;28;20105;-74
2023/06/23 01:48:54;;;;;;;22.85;13.27;;;;;;;15.31;100.00;101835.88;5005050;28;20026;-74
2023/06/23 01:51:21;;;;;;;24.10;13.55;;;;;;;15.30;100.00;101842.31;5011829;28;20068;-74
2023/06/23 01:53:48;;;;;;;24.45;15.05;;;;;;;15.34;100.00;101850.78;5011687;28;20026;-74
2023/06/23 01:56:15;;;;;;;22.77;14.75;;;;;;;15.34;100.00;101859.66;5012136;28;20026;-74
2023/06/23 01:58:41;;;;;;;22.83;13.63;;;;;;;15.34;100.00;101859.66;5011711;28;20034;-74
2023/06/23 02:01:07;;;;;;;23.20;14.65;;;;;;;15.31;100.00;101856.56;5012155;28;20034;-74
2023/06/23 02:03:33;;;;;;;27.35;15.90;;;;;;;15.34;100.00;101873.09;5011719;28;20048;-74
2023/06/23 02:06:01;;;;;;;26.83;16.13;;;;;;;15.32;100.00;101864.41;5011655;28;20036;-74
2023/06/23 02:08:28;;;;;;;24.70;15.23;;;;;;;15.32;100.00;101864.41;5011543;28;20042;-74
2023/06/23 02:10:55;;;;;;;21.80;13.30;;;;;;;15.32;100.00;101866.28;5011852;28;20088;-74
2023/06/23 02:13:24;;;;;;;23.02;15.30;;;;;;;15.28;100.00;101862.34;5011385;28;20034;-74
2023/06/23 02:15:52;;;;;;;22.42;15.20;;;;;;;15.22;100.00;101874.75;5011495;28;20441;-74
2023/06/23 02:18:19;;;;;;;22.60;15.05;;;;;;;15.22;100.00;101869.38;5011360;28;20026;-74
2023/06/23 02:20:47;;;;;;;22.23;14.52;;;;;;;15.20;100.00;101871.44;4992176;28;20039;-74
2023/06/23 02:23:14;;;;;;;22.55;14.80;;;;;;;15.24;100.00;101885.28;4992574;28;20034;-74
2023/06/23 02:25:40;;;;;;;24.77;16.52;;;;;;;15.24;100.00;101882.59;4992529;28;20101;-74
2023/06/23 02:28:08;;;;;;;23.20;16.17;;;;;;;15.20;100.00;101884.03;4992371;28;20035;-74
2023/06/23 02:30:34;;;;;;;25.58;15.35;;;;;;;15.20;100.00;101892.94;4992464;28;20084;-74
2023/06/23 02:33:00;;;;;;;22.52;14.75;;;;;;;15.20;100.00;101897.47;4992426;28;20437;-74
2023/06/23 02:35:26;;;;;;;24.63;15.48;;;;;;;15.17;100.00;101898.72;4992365;28;20034;-74
2023/06/23 02:37:58;;;;;;;22.02;13.75;;;;;;;15.12;100.00;101893.94;4992667;28;20031;-74
2023/06/23 02:40:26;;;;;;;22.85;14.27;;;;;;;15.09;100.00;101901.53;4991951;28;20054;-74
2023/06/23 02:43:23;;;;;;;22.98;15.18;;;;;;;15.11;100.00;101915.63;4992304;28;20038;-74
2023/06/23 02:45:53;;;;;;;23.05;15.27;;;;;;;15.08;100.00;101916.84;4987956;28;20142;-74
2023/06/23 02:48:22;;;;;;;24.20;14.27;;;;;;;15.09;100.00;101917.66;4992150;28;20029;-74
2023/06/23 02:50:49;;;;;;;23.75;14.50;;;;;;;15.05;100.00;101919.94;4992047;28;20068;-73
2023/06/23 02:53:40;;;;;;;26.90;15.65;;;;;;;15.05;100.00;101930.69;4992027;28;20557;-74
2023/06/23 02:56:12;;;;;;;26.17;17.65;;;;;;;15.03;100.00;101924.69;4992059;28;20069;-74
2023/06/23 02:58:38;;;;;;;24.33;15.70;;;;;;;15.05;100.00;101924.50;4991748;28;20367;-74
2023/06/23 03:01:06;;;;;;;25.60;16.92;;;;;;;15.01;100.00;101915.16;4991950;28;20026;-74
2023/06/23 03:03:35;;;;;;;25.40;16.17;;;;;;;15.02;100.00;101924.91;4992132;28;20034;-74
2023/06/23 03:06:00;;;;;;;27.50;17.67;;;;;;;15.04;100.00;101928.22;4991848;28;20048;-73
2023/06/23 03:08:25;;;;;;;24.15;17.60;;;;;;;15.02;100.00;101935.63;4991751;28;20041;-74
2023/06/23 03:10:51;;;;;;;26.80;17.38;;;;;;;14.99;100.00;101925.28;4974226;28;20115;-73
2023/06/23 03:13:17;;;;;;;25.38;17.02;;;;;;;14.99;100.00;101919.91;4991509;28;20091;-74
2023/06/23 03:15:47;;;;;;;30.33;19.52;;;;;;;15.03;100.00;101934.59;4991539;28;20109;-74
2023/06/23 03:18:16;;;;;;;28.15;17.95;;;;;;;14.98;100.00;101924.44;4991370;28;20042;-74
2023/06/23 03:20:49;;;;;;;30.38;18.25;;;;;;;15.04;100.00;101944.34;4991465;28;20037;-73
2023/06/23 03:23:16;;;;;;;29.15;18.02;;;;;;;15.00;100.00;101932.31;4991408;28;20536;-73
2023/06/23 03:25:46;;;;;;;26.98;18.77;;;;;;;15.03;100.00;101943.47;4991355;28;20075;-74
2023/06/23 03:28:33;;;;;;;27.83;19.75;;;;;;;15.03;100.00;101938.09;4991335;28;20401;-74
2023/06/23 03:31:02;;;;;;;30.77;18.40;;;;;;;15.03;100.00;101946.16;4990910;28;20050;-74
2023/06/23 03:33:33;;;;;;;29.45;20.38;;;;;;;15.07;100.00;101946.63;4991282;28;20068;-73
2023/06/23 03:36:07;;;;;;;33.25;21.92;;;;;;;15.10;100.00;101962.34;4973604;28;20385;-73
2023/06/23 03:38:37;;;;;;;32.30;21.48;;;;;;;15.10;100.00;101959.66;4991079;28;20022;-74
2023/06/23 03:41:09;;;;;;;33.30;22.63;;;;;;;15.09;100.00;101957.97;4990819;28;20057;-73
2023/06/23 03:43:37;;;;;;;;;;;;;;;15.15;100.00;101964.44;4991594;28;20193;-74
2023/06/23 03:46:13;;;;;;;32.17;20.23;;;;;;;15.11;100.00;101970.19;4991118;28;19910;-73
2023/06/23 03:48:42;;;;;;;30.80;21.02;;;;;;;15.10;100.00;101975.78;4990938;28;20384;-73
2023/06/23 03:51:12;;;;;;;33.58;23.00;;;;;;;15.09;100.00;101971.41;4990934;28;20030;-73
2023/06/23 03:53:38;;;;;;;33.28;22.08;;;;;;;15.11;100.00;101982.78;4991312;28;20030;-73
2023/06/23 03:56:06;;;;;;;31.73;22.88;;;;;;;15.08;100.00;101973.28;4990249;28;20034;-73
2023/06/23 03:58:33;;;;;;;33.13;24.67;;;;;;;15.11;100.00;101972.88;4990700;28;20022;-73
2023/06/23 04:01:01;;;;;;;30.70;20.67;;;;;;;15.08;100.00;101969.75;4990787;28;20405;-73
2023/06/23 04:03:30;;;;;;;35.15;24.52;;;;;;;15.10;100.00;101970.41;4990621;28;20085;-73
2023/06/23 04:05:57;;;;;;;31.98;23.15;;;;;;;15.12;100.00;101969.16;4990667;28;20502;-74
2023/06/23 04:08:25;;;;;;;35.83;23.17;;;;;;;15.17;100.00;101973.09;4973073;28;20041;-74
2023/06/23 04:10:56;;;;;;;33.00;23.45;;;;;;;15.19;100.00;101982.63;4990623;28;20120;-74
2023/06/23 04:13:22;;;;;;;33.42;23.42;;;;;;;15.21;100.00;101982.44;4990571;28;20658;-74
2023/06/23 04:15:51;;;;;;;35.47;25.10;;;;;;;15.24;100.00;101990.91;4990565;28;20097;-74
2023/06/23 04:18:18;;;;;;;37.83;24.52;;;;;;;15.32;100.00;101989.91;4990302;28;20037;-74
2023/06/23 04:20:45;;;;;;;36.10;25.10;;;;;;;15.30;100.00;101991.97;4990373;28;20039;-73
2023/06/23 04:23:12;;;;;;;32.05;23.75;;;;;;;15.34;100.00;101995.94;4990445;28;20041;-74
2023/06/23 04:25:40;;;;;;;36.42;23.63;;;;;;;15.33;100.00;101986.22;4990388;28;20120;-74
2023/06/23 04:28:10;;;;;;;35.35;24.65;;;;;;;15.41;100.00;101988.75;4990254;28;20022;-73
2023/06/23 04:30:37;;;;;;;31.80;24.65;;;;;;;15.50;100.00;102000.13;4990326;28;20037;-74
2023/06/23 04:33:03;;;;;;;36.22;24.85;;;;;;;15.53;100.00;101997.03;4990112;28;20058;-74
2023/06/23 04:35:29;;;;;;;36.38;24.05;;;;;;;15.61;100.00;102014.84;4972530;28;20058;-74
2023/06/23 04:38:01;;;;;;;35.67;23.05;;;;;;;15.65;100.00;102021.50;4972671;28;20390;-73
2023/06/23 04:40:29;;;;;;;;;;;;;;;15.74;100.00;102014.94;4990419;28;20065;-74
2023/06/23 04:43:12;;;;;;;34.72;24.55;;;;;;;16.04;100.00;102026.19;4990231;28;20357;-73
2023/06/23 04:45:50;;;;;;;33.95;23.27;;;;;;;16.42;100.00;102021.03;4989979;28;20089;-73
2023/06/23 04:48:21;;;;;;;32.33;22.58;;;;;;;16.44;100.00;102028.94;4990076;28;20093;-74
2023/06/23 04:50:49;;;;;;;37.78;21.92;;;;;;;16.37;100.00;102028.94;4989974;28;20026;-74
2023/06/23 04:53:21;;;;;;;35.50;25.60;;;;;;;16.34;100.00;102031.19;4990051;28;20062;-73
2023/06/23 04:55:52;;;;;;;31.25;21.85;;;;;;;16.23;100.00;102037.19;4991707;28;20170;-73
2023/06/23 04:58:20;;;;;;;32.47;22.42;;;;;;;16.22;100.00;102039.06;5008579;28;20064;-74
2023/06/23 05:00:47;;;;;;;31.83;24.33;;;;;;;16.23;100.00;102031.81;5008693;28;20116;-74
2023/06/23 05:03:15;;;;;;;35.22;23.90;;;;;;;16.21;100.00;102032.81;5008699;28;20084;-73
2023/06/23 05:05:42;;;;;;;33.22;24.42;;;;;;;16.23;100.00;102034.50;5008657;28;20021;-73
2023/06/23 05:08:10;;;;;;;36.35;22.90;;;;;;;16.55;100.00;102035.56;5011569;28;20057;-73
2023/06/23 05:10:37;;;;;;;36.03;22.90;;;;;;;16.82;100.00;102041.78;5012683;28;20042;-73
2023/06/23 05:13:04;;;;;;;31.52;23.08;;;;;;;16.86;100.00;102043.03;4978619;28;20124;-73
2023/06/23 05:15:29;;;;;;;32.88;21.65;;;;;;;16.81;100.00;102042.81;5001921;28;20030;-73
2023/06/23 05:17:57;;;;;;;33.45;22.70;;;;;;;16.77;100.00;102041.56;4993576;28;20372;-73
2023/06/23 05:20:24;;;;;;;30.60;21.63;;;;;;;16.74;100.00;102047.34;4993019;28;20036;-74
2023/06/23 05:22:51;;;;;;;34.88;24.27;;;;;;;16.73;100.00;102048.41;4993663;28;20034;-73
2023/06/23 05:25:19;;;;;;;33.03;22.73;;;;;;;16.75;100.00;102049.03;4993614;28;20040;-73
2023/06/23 05:27:45;;;;;;;34.90;22.98;;;;;;;16.73;100.00;102043.00;4993623;28;20041;-73
2023/06/23 05:30:17;;;;;;;35.97;23.65;;;;;;;16.77;100.00;102049.66;4993412;28;20037;-73
2023/06/23 05:32:43;;;;;;;37.40;25.65;;;;;;;16.86;100.00;102062.72;4993423;28;20027;-73
2023/06/23 05:35:10;;;;;;;36.25;22.70;;;;;;;16.89;100.00;102066.88;4993829;28;20023;-73
2023/06/23 05:37:38;;;;;;;34.03;23.27;;;;;;;16.91;100.00;102070.19;4993230;28;20041;-73
2023/06/23 05:40:05;;;;;;;35.90;25.15;;;;;;;16.97;100.00;102072.03;4993296;28;20058;-73
2023/06/23 05:42:32;;;;;;;35.22;23.35;;;;;;;17.02;100.00;102080.31;4993216;28;20030;-73
2023/06/23 05:45:00;;;;;;;35.20;23.08;;;;;;;17.09;100.00;102077.63;4993185;28;20532;-73
2023/06/23 05:47:31;;;;;;;34.17;23.58;;;;;;;17.07;100.00;102075.13;5012002;28;20022;-73
2023/06/23 05:50:00;;;;;;;35.80;21.63;;;;;;;17.14;100.00;102075.13;5012125;28;20021;-73
2023/06/23 05:52:26;;;;;;;35.55;23.92;;;;;;;17.19;100.00;102082.59;5012050;28;20477;-73
2023/06/23 05:54:54;;;;;;;35.33;23.02;;;;;;;17.32;100.00;102082.56;5011763;28;20045;-73
2023/06/23 05:57:28;;;;;;;31.70;22.20;;;;;;;17.39;100.00;102088.75;5011678;28;20038;-74
2023/06/23 06:00:11;;;;;;;32.78;21.40;;;;;;;17.48;100.00;102089.38;5011737;28;20034;-73
2023/06/23 06:02:39;;;;;;;33.53;23.63;;;;;;;17.58;100.00;102099.69;4992701;28;20042;-73
2023/06/23 06:05:08;;;;;;;35.47;23.00;;;;;;;17.60;100.00;102094.91;4992902;28;20042;-73
2023/06/23 06:07:35;;;;;;;34.33;22.73;;;;;;;17.71;100.00;102103.19;4992935;28;20022;-73
2023/06/23 06:10:03;;;;;;;32.90;21.13;;;;;;;17.68;100.00;102091.97;4992639;28;20493;-73
2023/06/23 06:12:30;;;;;;;33.15;21.00;;;;;;;17.74;100.00;102110.84;4992771;28;20038;-73
2023/06/23 06:14:58;;;;;;;32.25;22.08;;;;;;;17.77;100.00;102101.50;4992807;28;20034;-74
2023/06/23 06:17:25;;;;;;;34.95;23.25;;;;;;;17.83;100.00;102110.66;4992471;28;20077;-74
2023/06/23 06:19:56;;;;;;;33.92;22.73;;;;;;;17.85;100.00;102113.97;4974360;28;20107;-75
2023/06/23 06:22:24;;;;;;;38.80;25.80;;;;;;;17.95;100.00;102111.63;4992519;28;20026;-74
2023/06/23 06:24:52;;;;;;;30.60;20.60;;;;;;;17.96;100.00;102119.50;4992407;28;20069;-73
2023/06/23 06:27:20;;;;;;;38.95;24.27;;;;;;;18.02;100.00;102122.38;5000644;28;20465;-75
2023/06/23 06:29:47;;;;;;;35.05;23.88;;;;;;;18.03;100.00;102127.59;4993569;28;20025;-74
2023/06/23 06:32:14;;;;;;;38.75;24.10;;;;;;;18.07;100.00;102128.78;5011201;28;20025;-74
2023/06/23 06:34:41;;;;;;;34.83;24.55;;;;;;;18.10;100.00;102124.84;5011106;28;20030;-75
2023/06/23 06:37:08;;;;;;;32.80;23.23;;;;;;;18.14;100.00;102134.19;4995318;28;20030;-74
2023/06/23 06:39:35;;;;;;;32.15;22.50;;;;;;;18.25;100.00;102135.38;4992014;28;20026;-74
2023/06/23 06:42:01;;;;;;;33.05;23.17;;;;;;;18.26;100.00;102137.00;4992143;28;20085;-74
2023/06/23 06:44:26;;;;;;;31.83;22.63;;;;;;;18.23;100.00;102135.56;5003143;28;20489;-75
2023/06/23 06:46:52;;;;;;;30.20;22.45;;;;;;;18.31;100.00;102146.13;5010906;28;20034;-73
2023/06/23 06:49:21;;;;;;;30.88;22.90;;;;;;;18.33;100.00;102151.31;5008967;28;20037;-73
2023/06/23 06:51:48;;;;;;;33.22;24.98;;;;;;;18.34;100.00;102143.00;4991688;28;20120;-73
2023/06/23 06:54:16;;;;;;;30.25;21.67;;;;;;;18.29;100.00;102155.50;4991367;28;20205;-73
2023/06/23 06:56:42;;;;;;;31.80;24.17;;;;;;;18.26;100.00;102151.38;4991665;28;20104;-73
2023/06/23 06:59:07;;;;;;;33.08;25.13;;;;;;;18.34;100.00;102159.22;4991725;28;20168;-73
2023/06/23 07:01:34;;;;;;;34.35;23.30;;;;;;;18.36;100.00;102157.09;4991869;28;20573;-73
2023/06/23 07:04:00;;;;;;;30.90;23.65;;;;;;;18.43;100.00;102154.38;4992137;28;20038;-73
2023/06/23 07:06:26;;;;;;;34.60;24.52;;;;;;;18.46;100.00;102163.91;4991771;28;20030;-73
2023/06/23 07:08:52;;;;;;;34.30;23.75;;;;;;;18.55;100.00;102157.22;4991596;28;20026;-73
2023/06/23 07:11:17;;;;;;;34.22;24.80;;;;;;;18.70;100.00;102167.69;4974011;28;20141;-74
2023/06/23 07:13:42;;;;;;;37.67;25.02;;;;;;;18.72;100.00;102179.94;5008757;28;20124;-73
2023/06/23 07:16:08;;;;;;;33.83;25.27;;;;;;;18.75;100.00;102186.81;5009784;28;20034;-73
2023/06/23 07:18:33;;;;;;;31.58;21.95;;;;;;;18.72;100.00;102185.34;5009800;28;20034;-73
2023/06/23 07:21:00;;;;;;;32.40;26.13;;;;;;;18.67;100.00;102182.47;5009856;28;20038;-73
2023/06/23 07:23:25;;;;;;;32.13;23.92;;;;;;;18.73;100.00;102186.19;5009873;28;20037;-73
2023/06/23 07:25:50;;;;;;;33.15;24.00;;;;;;;18.76;100.00;102192.03;5009999;28;20033;-73
2023/06/23 07:28:16;;;;;;;30.25;23.23;;;;;;;18.75;100.00;102195.75;5009773;28;20037;-73
2023/06/23 07:30:41;;;;;;;32.38;23.15;;;;;;;18.72;100.00;102192.66;5009041;28;20040;-73
2023/06/23 07:33:06;;;;;;;31.52;24.52;;;;;;;18.74;100.00;102193.25;5009929;28;20083;-73
2023/06/23 07:35:32;;;;;;;32.05;23.65;;;;;;;18.77;100.00;102182.84;5009469;28;20032;-73
2023/06/23 07:37:58;;;;;;;32.88;22.67;;;;;;;18.79;100.00;102191.59;5009118;28;20045;-73
2023/06/23 07:40:23;;;;;;;33.88;23.67;;;;;;;18.89;100.00;102198.38;5009583;28;20065;-73
2023/06/23 07:42:48;;;;;;;32.15;23.40;;;;;;;18.89;100.00;102192.97;5009964;28;20473;-74
2023/06/23 07:45:14;;;;;;;34.22;25.15;;;;;;;18.92;100.00;102200.66;4998218;28;20230;-73
2023/06/23 07:47:39;;;;;;;30.35;20.98;;;;;;;18.92;100.00;102201.47;4990643;28;20030;-73
2023/06/23 07:50:05;;;;;;;32.15;20.77;;;;;;;18.93;100.00;102203.13;4990701;28;20034;-73
2023/06/23 07:52:36;;;;;;;30.35;20.90;;;;;;;19.00;100.00;102206.63;5092430;27;1305989;-72
2023/06/23 07:55:02;;;;;;;31.30;21.92;;;;;;;19.06;100.00;102207.59;5126949;27;20039;-72
2023/06/23 07:57:28;;;;;;;27.88;18.63;;;;;;;19.12;100.00;102204.00;5126520;27;20035;-74
2023/06/23 07:59:53;;;;;;;30.45;21.35;;;;;;;19.23;100.00;102207.88;5125988;28;20023;-74
2023/06/23 08:02:18;;;;;;;30.15;21.77;;;;;;;19.34;100.00;102203.66;5125424;28;20084;-74
2023/06/23 08:04:44;;;;;;;30.13;19.95;;;;;;;19.36;100.00;102210.50;5126312;27;20023;-74
2023/06/23 08:07:09;;;;;;;29.88;20.33;;;;;;;19.39;100.00;102209.22;5126388;27;20074;-73
2023/06/23 08:09:35;;;;;;;29.88;22.00;;;;;;;19.51;100.00;102202.00;5116521;28;20516;-71
2023/06/23 08:12:00;;;;;;;29.33;19.60;;;;;;;19.81;100.00;102198.63;5115838;28;20081;-74
2023/06/23 08:14:25;;;;;;;29.85;19.20;;;;;;;20.42;100.00;102202.25;5116378;28;20026;-73
2023/06/23 08:16:51;;;;;;;27.90;18.23;;;;;;;21.35;100.00;102215.22;5115506;27;20028;-73
2023/06/23 08:19:21;;;;;;;29.58;18.30;;;;;;;22.69;98.54;102216.97;5120523;27;20054;-73
2023/06/23 08:21:48;;;;;;;27.77;16.73;;;;;;;24.36;82.25;102207.97;5126011;27;20390;-73
2023/06/23 08:24:13;;;;;;;28.02;18.65;;;;;;;24.63;79.17;102199.00;5126432;27;20582;-74
2023/06/23 08:26:39;;;;;;;24.88;16.10;;;;;;;24.43;76.99;102215.97;5126609;27;20129;-74
2023/06/23 08:29:04;;;;;;;27.98;15.75;;;;;;;24.59;76.55;102212.34;5126480;28;20051;-74
2023/06/23 08:31:29;;;;;;;24.38;16.90;;;;;;;25.91;71.74;102208.13;5125130;28;20043;-73
2023/06/23 08:33:55;;;;;;;22.70;14.90;;;;;;;27.23;66.52;102209.47;5126591;28;20027;-74
2023/06/23 08:36:20;;;;;;;22.10;15.10;;;;;;;28.35;59.94;102211.03;5108065;28;20117;-74
2023/06/23 08:38:45;;;;;;;25.42;15.70;;;;;;;29.23;57.28;102203.75;5125047;28;20039;-73
2023/06/23 08:41:11;;;;;;;20.75;14.32;;;;;;;29.95;53.99;102212.06;5126036;28;20031;-73
2023/06/23 08:43:44;;;;;;;23.77;14.95;;;;;;;30.55;53.07;102219.78;5126183;28;20034;-74
2023/06/23 08:46:13;;;;;;;26.23;16.15;;;;;;;31.16;53.01;102220.69;5124794;27;20023;-74
2023/06/23 08:48:42;;;;;;;21.10;14.90;;;;;;;31.22;49.99;102220.28;5126135;27;20027;-74
2023/06/23 08:51:08;;;;;;;23.60;14.05;;;;;;;31.79;50.01;102225.56;5125885;27;20470;-74
2023/06/23 08:53:33;;;;;;;21.25;13.95;;;;;;;31.90;47.00;102225.34;5125553;27;20046;-75
2023/06/23 08:55:59;;;;;;;18.02;11.32;;;;;;;32.24;45.77;102227.66;5125967;28;20140;-74
2023/06/23 08:58:24;;;;;;;17.77;10.95;;;;;;;32.66;46.15;102233.91;5124830;28;20031;-74
2023/06/23 09:00:51;;;;;;;21.70;13.40;;;;;;;32.63;45.00;102240.06;5126287;28;20024;-74
2023/06/23 09:03:24;;;;;;;18.80;11.70;;;;;;;32.79;47.11;102234.97;5116338;27;20978;-74
2023/06/23 09:05:49;;;;;;;26.25;13.75;;;;;;;32.65;44.94;102241.38;5112338;28;20034;-74
2023/06/23 09:08:15;;;;;;;20.10;12.65;;;;;;;31.54;46.12;102250.91;5112168;28;20469;-74
2023/06/23 09:10:40;;;;;;;18.80;11.73;;;;;;;29.78;50.84;102247.47;5112048;28;20488;-75
2023/06/23 09:13:36;;;;;;;19.70;10.90;;;;;;;28.41;58.93;102249.09;5110762;28;20031;-74
2023/06/23 09:16:03;;;;;;;19.48;12.88;;;;;;;26.88;63.26;102253.00;5112032;28;20122;-74
2023/06/23 09:18:40;;;;;;;20.60;11.18;;;;;;;26.17;67.21;102250.91;5111973;28;20286;-74
2023/06/23 09:21:06;;;;;;;21.38;12.57;;;;;;;25.52;67.22;102242.06;5112062;28;20085;-74
2023/06/23 09:23:32;;;;;;;21.67;12.38;;;;;;;25.05;70.20;102240.06;5111944;28;20085;-74
2023/06/23 09:25:57;;;;;;;18.10;10.75;;;;;;;24.55;71.33;102229.47;5111895;28;20027;-74
2023/06/23 09:28:36;;;;;;;15.73;9.65;;;;;;;24.39;68.65;102248.38;5112187;28;20038;-74
2023/06/23 09:31:11;;;;;;;17.90;11.52;;;;;;;24.12;69.93;102255.69;5111534;28;20057;-73
2023/06/23 09:33:46;;;;;;;17.77;9.55;;;;;;;23.93;68.85;102261.44;5111771;28;20031;-74
2023/06/23 09:36:12;;;;;;;17.20;9.60;;;;;;;23.66;71.23;102249.56;5111597;28;20048;-73
2023/06/23 09:38:38;;;;;;;17.02;10.38;;;;;;;23.63;72.05;102259.91;5111754;28;20110;-74
2023/06/23 09:41:13;;;;;;;19.70;12.68;;;;;;;23.67;73.37;102260.22;5111648;28;20171;-74
2023/06/23 09:43:51;;;;;;;16.70;10.00;;;;;;;23.69;72.74;102265.44;5111378;28;20031;-73
2023/06/23 09:46:19;;;;;;;17.98;9.73;;;;;;;23.66;75.14;102271.34;5111634;28;20371;-73
2023/06/23 09:48:46;;;;;;;20.73;10.80;;;;;;;23.81;77.23;102274.34;5111417;28;20081;-74
2023/06/23 09:51:12;;;;;;;15.45;9.07;;;;;;;23.84;72.52;102271.09;5111122;28;20027;-74
2023/06/23 09:53:40;;;;;;;16.55;11.10;;;;;;;23.86;72.50;102271.69;5111420;28;20032;-73
2023/06/23 09:56:07;;;;;;;15.07;9.32;;;;;;;23.83;70.37;102272.19;5111230;28;20047;-73
2023/06/23 09:58:37;;;;;;;17.30;9.45;;;;;;;23.86;70.42;102266.22;5111503;28;20031;-74
2023/06/23 10:01:05;;;;;;;16.30;8.93;;;;;;;23.76;70.12;102268.81;5111249;28;20024;-75
2023/06/23 10:03:31;;;;;;;15.50;9.27;;;;;;;23.79;73.31;102258.25;5111171;27;20066;-74
2023/06/23 10:05:57;;;;;;;18.15;8.77;;;;;;;23.91;75.04;102269.03;5110495;28;20031;-74
2023/06/23 10:08:23;;;;;;;16.58;9.43;;;;;;;23.91;74.32;102260.03;5110505;28;20066;-74
2023/06/23 10:10:48;;;;;;;16.58;8.75;;;;;;;23.95;75.42;102267.47;5109961;28;20031;-74
2023/06/23 10:13:14;;;;;;;14.48;8.18;;;;;;;24.01;70.54;102266.44;5111010;28;20027;-74
2023/06/23 10:15:43;;;;;;;12.70;7.50;;;;;;;24.10;72.00;102266.00;5109950;28;20027;-73
2023/06/23 10:18:11;;;;;;;14.13;7.40;;;;;;;23.96;71.10;102265.56;5109916;28;20054;-74
2023/06/23 10:20:37;;;;;;;11.70;7.70;;;;;;;23.80;71.73;102257.16;5110716;28;20058;-74
2023/06/23 10:23:03;;;;;;;12.27;6.90;;;;;;;23.86;68.40;102262.69;5110827;28;20023;-74
2023/06/23 10:25:29;;;;;;;13.68;7.40;;;;;;;23.91;66.98;102268.22;5109579;28;20038;-74
2023/06/23 10:27:57;;;;;;;14.38;7.50;;;;;;;23.98;69.24;102257.97;5110678;28;20118;-74
2023/06/23 10:30:23;;;;;;;14.75;7.18;;;;;;;24.02;71.80;102259.91;5110554;28;20034;-74
2023/06/23 10:32:56;;;;;;;14.52;7.95;;;;;;;24.25;71.60;102261.56;5110683;28;20387;-74
2023/06/23 10:35:23;;;;;;;12.85;6.93;;;;;;;24.37;70.54;102261.44;5109189;28;20473;-74
2023/06/23 10:37:52;;;;;;;14.35;8.77;;;;;;;24.16;66.63;102265.81;5110505;28;20107;-74
2023/06/23 10:40:24;;;;;;;15.15;6.80;;;;;;;24.17;66.12;102258.47;5110448;28;20019;-74
2023/06/23 10:42:51;;;;;;;10.00;5.95;;;;;;;24.33;72.95;102257.56;5110527;28;20027;-74
2023/06/23 10:45:17;;;;;;;12.10;6.85;;;;;;;24.36;68.09;102251.59;5110519;28;20103;-74
2023/06/23 10:47:43;;;;;;;12.45;6.70;;;;;;;24.44;70.77;102264.84;5110354;28;20146;-74
2023/06/23 10:50:10;;;;;;;12.30;7.40;;;;;;;24.35;68.62;102260.06;5110178;28;20035;-74
2023/06/23 10:52:37;;;;;;;12.15;5.80;;;;;;;24.36;68.68;102276.13;5109740;28;20131;-75
2023/06/23 10:55:41;;;;;;;13.35;6.45;;;;;;;24.36;71.55;102265.22;5110221;28;20032;-75
2023/06/23 10:58:08;;;;;;;12.98;5.75;;;;;;;24.10;69.44;102269.53;5110139;28;20039;-74
2023/06/23 11:00:34;;;;;;;10.02;5.20;;;;;;;24.16;67.16;102268.56;5109865;28;20088;-74
2023/06/23 11:02:59;;;;;;;13.50;5.75;;;;;;;24.30;66.40;102265.44;5110199;28;20031;-75
2023/06/23 11:05:24;;;;;;;10.32;6.03;;;;;;;24.48;65.62;102267.88;5108580;28;20474;-74
2023/06/23 11:08:01;;;;;;;11.25;6.50;;;;;;;24.58;67.87;102267.16;5108592;28;20036;-75
2023/06/23 11:10:46;;;;;;;10.45;5.50;;;;;;;24.62;65.27;102281.94;5103460;27;20496;-72
2023/06/23 11:13:12;;;;;;;12.00;5.85;;;;;;;24.71;63.51;102278.50;5101736;28;20459;-71